Time;durP1;ratioP1;P1;durP2;ratioP2;P2;SDS_P1;SDS_P2;PMS_P1;PMS_P2;Temp;Humidity;BMP_temperature;BMP_pressure;BME280_temperature;BME280_humidity;BME280_pressure;Samples;Min_cycle;Max_cycle;Signal;HPM_P1;HPM_P2
2021/06/19 00:00:30;;;;;;;11.20;3.90;;;;;;;;;;5029800;28;20061;-57
2021/06/19 00:02:58;;;;;;;12.20;4.50;;;;;;;;;;5030220;28;20053;-55
2021/06/19 00:05:27;;;;;;;8.13;4.05;;;;;;;;;;5048348;28;20041;-54
2021/06/19 00:07:54;;;;;;;9.88;4.03;;;;;;;;;;5030958;28;20037;-52
2021/06/19 00:10:24;;;;;;;10.20;4.00;;;;;;;;;;5036526;28;20048;-55
2021/06/19 00:12:51;;;;;;;9.32;4.10;;;;;;;;;;5035263;28;20040;-56
2021/06/19 00:15:19;;;;;;;12.77;4.33;;;;;;;;;;5029923;28;20069;-56
2021/06/19 00:17:45;;;;;;;13.83;5.00;;;;;;;;;;5029427;28;20278;-52
2021/06/19 00:20:13;;;;;;;7.78;4.07;;;;;;;;;;5033810;28;20045;-51
2021/06/19 00:22:40;;;;;;;16.42;4.32;;;;;;;;;;5048465;28;20115;-57
2021/06/19 00:25:11;;;;;;;9.85;4.03;;;;;;;;;;5049679;28;20041;-52
2021/06/19 00:27:39;;;;;;;8.43;4.38;;;;;;;;;;5048247;28;20051;-55
2021/06/19 00:30:06;;;;;;;9.07;4.60;;;;;;;;;;5033196;28;20044;-54
2021/06/19 00:32:32;;;;;;;10.43;4.50;;;;;;;;;;5043224;28;20053;-48
2021/06/19 00:35:02;;;;;;;8.90;4.13;;;;;;;;;;5031039;28;20048;-55
2021/06/19 00:37:28;;;;;;;9.30;4.10;;;;;;;;;;5027484;28;20287;-51
2021/06/19 00:39:55;;;;;;;7.65;4.45;;;;;;;;;;5037248;28;20168;-55
2021/06/19 00:42:22;;;;;;;9.57;4.18;;;;;;;;;;5036284;28;20144;-52
2021/06/19 00:44:50;;;;;;;7.78;3.90;;;;;;;;;;5029120;28;20053;-54
2021/06/19 00:47:16;;;;;;;9.63;4.00;;;;;;;;;;5031797;28;20047;-55
2021/06/19 00:49:43;;;;;;;7.82;4.07;;;;;;;;;;5024968;28;20047;-54
2021/06/19 00:52:10;;;;;;;7.38;3.65;;;;;;;;;;5031431;28;20099;-50
2021/06/19 00:54:36;;;;;;;6.60;3.10;;;;;;;;;;5038877;28;20057;-54
2021/06/19 00:57:03;;;;;;;5.43;2.80;;;;;;;;;;5029654;28;20065;-53
2021/06/19 00:59:30;;;;;;;5.85;2.97;;;;;;;;;;5029446;28;20131;-50
2021/06/19 01:01:58;;;;;;;6.53;2.63;;;;;;;;;;5027880;28;20127;-53
2021/06/19 01:04:27;;;;;;;5.78;2.10;;;;;;;;;;5048405;28;20037;-52
2021/06/19 01:06:53;;;;;;;5.90;2.30;;;;;;;;;;5068247;28;20057;-55
2021/06/19 01:09:20;;;;;;;5.95;1.98;;;;;;;;;;5043206;28;20033;-55
2021/06/19 01:11:47;;;;;;;3.45;1.83;;;;;;;;;;5062256;28;20037;-53
2021/06/19 01:14:14;;;;;;;4.20;1.88;;;;;;;;;;5045632;28;20044;-57
2021/06/19 01:16:44;;;;;;;4.53;1.80;;;;;;;;;;5066958;28;20059;-54
2021/06/19 01:19:13;;;;;;;4.80;1.67;;;;;;;;;;5052136;28;20060;-54
2021/06/19 01:21:39;;;;;;;4.88;2.03;;;;;;;;;;5052397;28;20040;-52
2021/06/19 01:24:06;;;;;;;6.05;1.77;;;;;;;;;;5069916;28;20045;-54
2021/06/19 01:26:36;;;;;;;4.47;1.70;;;;;;;;;;5064536;28;20052;-54
2021/06/19 01:29:02;;;;;;;5.05;2.42;;;;;;;;;;5056616;28;20044;-56
2021/06/19 01:31:28;;;;;;;4.18;1.70;;;;;;;;;;5063925;28;20064;-56
2021/06/19 01:33:55;;;;;;;8.15;2.00;;;;;;;;;;5052185;28;20163;-55
2021/06/19 01:36:25;;;;;;;3.90;1.90;;;;;;;;;;5049311;28;20037;-52
2021/06/19 01:38:52;;;;;;;3.28;1.90;;;;;;;;;;5063900;28;20069;-55
2021/06/19 01:41:20;;;;;;;2.97;1.65;;;;;;;;;;5047859;28;20021;-55
2021/06/19 01:43:49;;;;;;;4.68;2.05;;;;;;;;;;5057946;28;20049;-56
2021/06/19 01:46:16;;;;;;;6.45;1.90;;;;;;;;;;5047930;28;20119;-55
2021/06/19 01:48:42;;;;;;;6.93;2.00;;;;;;;;;;5049996;28;20148;-54
2021/06/19 01:51:09;;;;;;;8.57;1.98;;;;;;;;;;5046270;28;20059;-54
2021/06/19 01:53:38;;;;;;;4.38;1.92;;;;;;;;;;5055828;28;20044;-55
2021/06/19 01:56:05;;;;;;;5.38;2.03;;;;;;;;;;5048522;28;20044;-55
2021/06/19 01:58:32;;;;;;;5.68;2.03;;;;;;;;;;5051648;28;20037;-53
2021/06/19 02:00:59;;;;;;;3.97;2.15;;;;;;;;;;5065238;28;20043;-55
2021/06/19 02:03:26;;;;;;;4.10;2.30;;;;;;;;;;5049657;28;20029;-53
2021/06/19 02:05:53;;;;;;;5.38;2.17;;;;;;;;;;5061596;28;20028;-54
2021/06/19 02:08:20;;;;;;;6.65;2.42;;;;;;;;;;5058317;28;20056;-56
2021/06/19 02:10:47;;;;;;;4.63;2.10;;;;;;;;;;5042503;28;20044;-52
2021/06/19 02:13:13;;;;;;;4.28;2.08;;;;;;;;;;5039566;28;20072;-51
2021/06/19 02:15:41;;;;;;;4.63;2.17;;;;;;;;;;5061252;28;20071;-53
2021/06/19 02:18:09;;;;;;;3.95;2.10;;;;;;;;;;5039510;28;20037;-54
2021/06/19 02:20:35;;;;;;;4.05;2.28;;;;;;;;;;5043012;28;20041;-52
2021/06/19 02:23:02;;;;;;;5.15;2.33;;;;;;;;;;5042063;28;20044;-50
2021/06/19 02:25:29;;;;;;;4.88;2.55;;;;;;;;;;5044278;28;20029;-54
2021/06/19 02:27:57;;;;;;;5.60;2.20;;;;;;;;;;5039227;28;20069;-53
2021/06/19 02:30:25;;;;;;;5.95;2.72;;;;;;;;;;5062614;28;20044;-50
2021/06/19 02:32:52;;;;;;;7.97;2.50;;;;;;;;;;5040360;28;20052;-51
2021/06/19 02:35:21;;;;;;;5.30;2.50;;;;;;;;;;5044441;28;20048;-52
2021/06/19 02:37:48;;;;;;;6.00;2.28;;;;;;;;;;5040664;28;20033;-54
2021/06/19 02:40:15;;;;;;;4.15;2.28;;;;;;;;;;5044093;28;20155;-55
2021/06/19 02:42:42;;;;;;;5.40;2.33;;;;;;;;;;5059397;28;20048;-55
2021/06/19 02:45:11;;;;;;;4.82;2.47;;;;;;;;;;5061633;28;20041;-54
2021/06/19 02:47:38;;;;;;;4.47;2.35;;;;;;;;;;5040906;28;20033;-53
2021/06/19 02:50:05;;;;;;;3.95;2.40;;;;;;;;;;5046829;28;20089;-50
2021/06/19 02:52:33;;;;;;;3.90;2.30;;;;;;;;;;5046951;28;20147;-54
2021/06/19 02:54:59;;;;;;;4.45;2.15;;;;;;;;;;5044185;28;20045;-52
2021/06/19 02:57:26;;;;;;;7.43;2.55;;;;;;;;;;5064238;28;20143;-55
2021/06/19 02:59:52;;;;;;;5.88;2.83;;;;;;;;;;5043882;28;20044;-51
2021/06/19 03:02:19;;;;;;;4.07;2.40;;;;;;;;;;5064151;28;20080;-55
2021/06/19 03:04:45;;;;;;;6.00;2.67;;;;;;;;;;5037682;28;20052;-48
2021/06/19 03:07:12;;;;;;;9.07;2.92;;;;;;;;;;5042815;28;20049;-53
2021/06/19 03:09:42;;;;;;;7.20;2.85;;;;;;;;;;5041901;28;20110;-55
2021/06/19 03:12:09;;;;;;;4.80;2.65;;;;;;;;;;5046722;28;20037;-53
2021/06/19 03:14:36;;;;;;;5.30;2.60;;;;;;;;;;5043382;28;20061;-51
2021/06/19 03:17:04;;;;;;;5.05;2.88;;;;;;;;;;5046325;28;20045;-53
2021/06/19 03:19:31;;;;;;;4.10;2.50;;;;;;;;;;5029913;28;20051;-48
2021/06/19 03:21:58;;;;;;;5.97;2.90;;;;;;;;;;5045389;28;20048;-52
2021/06/19 03:24:25;;;;;;;5.63;2.90;;;;;;;;;;5043689;28;20041;-52
2021/06/19 03:26:53;;;;;;;6.68;3.15;;;;;;;;;;5046418;28;20118;-54
2021/06/19 03:29:20;;;;;;;6.05;2.83;;;;;;;;;;5042304;28;20114;-55
2021/06/19 03:31:46;;;;;;;7.03;2.90;;;;;;;;;;5046388;28;20049;-53
2021/06/19 03:34:13;;;;;;;4.95;3.00;;;;;;;;;;5045752;28;20040;-55
2021/06/19 03:36:39;;;;;;;6.80;3.25;;;;;;;;;;5042342;28;20044;-56
2021/06/19 03:39:06;;;;;;;7.20;3.33;;;;;;;;;;5046607;28;20041;-55
2021/06/19 03:41:32;;;;;;;5.47;3.10;;;;;;;;;;5040691;28;20041;-49
2021/06/19 03:44:00;;;;;;;5.13;3.20;;;;;;;;;;5046000;28;20037;-54
2021/06/19 03:46:26;;;;;;;7.50;3.08;;;;;;;;;;5042412;28;20068;-51
2021/06/19 03:48:53;;;;;;;7.90;3.55;;;;;;;;;;5046342;28;20029;-54
2021/06/19 03:51:19;;;;;;;8.10;3.75;;;;;;;;;;5049170;28;20047;-52
2021/06/19 03:53:46;;;;;;;6.57;3.67;;;;;;;;;;5064463;28;20040;-52
2021/06/19 03:56:12;;;;;;;8.40;3.55;;;;;;;;;;5035278;28;20033;-54
2021/06/19 03:58:39;;;;;;;8.18;3.83;;;;;;;;;;5064046;28;20037;-54
2021/06/19 04:01:06;;;;;;;8.07;3.83;;;;;;;;;;5040664;28;20105;-55
2021/06/19 04:03:33;;;;;;;6.63;3.50;;;;;;;;;;5045410;28;20040;-52
2021/06/19 04:06:00;;;;;;;10.38;3.70;;;;;;;;;;5041282;28;20085;-53
2021/06/19 04:08:26;;;;;;;8.02;3.85;;;;;;;;;;5046050;28;20048;-55
2021/06/19 04:10:52;;;;;;;8.25;3.85;;;;;;;;;;5022831;28;20052;-54
2021/06/19 04:13:19;;;;;;;6.22;3.63;;;;;;;;;;5045777;28;20048;-53
2021/06/19 04:15:47;;;;;;;9.23;3.80;;;;;;;;;;5063743;28;20141;-56
2021/06/19 04:18:15;;;;;;;7.35;3.50;;;;;;;;;;5041322;28;20056;-57
2021/06/19 04:20:42;;;;;;;10.25;3.97;;;;;;;;;;5045112;28;20111;-54
2021/06/19 04:23:08;;;;;;;7.18;3.90;;;;;;;;;;5042475;28;20033;-55
2021/06/19 04:25:34;;;;;;;9.50;4.50;;;;;;;;;;5045667;28;20045;-55
2021/06/19 04:28:01;;;;;;;9.98;4.20;;;;;;;;;;5042127;28;20044;-55
2021/06/19 04:30:29;;;;;;;8.10;3.95;;;;;;;;;;5044015;28;20061;-54
2021/06/19 04:32:56;;;;;;;9.20;4.25;;;;;;;;;;5043153;28;20079;-55
2021/06/19 04:35:24;;;;;;;8.18;4.20;;;;;;;;;;5063017;28;20055;-54
2021/06/19 04:37:51;;;;;;;;;;;;;;;;;;5043234;28;20040;-57
2021/06/19 04:40:21;;;;;;;10.40;4.13;;;;;;;;;;5043852;28;19924;-56
2021/06/19 04:42:56;;;;;;;10.35;4.45;;;;;;;;;;5040412;28;20167;-51
2021/06/19 04:45:22;;;;;;;11.02;4.45;;;;;;;;;;5042807;28;20053;-52
2021/06/19 04:47:49;;;;;;;8.10;4.30;;;;;;;;;;5040685;28;20056;-55
2021/06/19 04:50:15;;;;;;;12.80;5.22;;;;;;;;;;5043697;28;20033;-55
2021/06/19 04:52:45;;;;;;;10.20;4.85;;;;;;;;;;5040023;28;20036;-49
2021/06/19 04:55:14;;;;;;;10.38;5.80;;;;;;;;;;5045029;28;20040;-50
2021/06/19 04:57:41;;;;;;;14.13;5.60;;;;;;;;;;5043095;28;20085;-51
2021/06/19 05:00:08;;;;;;;15.35;5.97;;;;;;;;;;5040599;28;20029;-54
2021/06/19 05:02:34;;;;;;;10.73;5.80;;;;;;;;;;5061851;28;20033;-53
2021/06/19 05:05:01;;;;;;;13.30;6.93;;;;;;;;;;5038105;28;20650;-57
2021/06/19 05:07:27;;;;;;;15.05;6.45;;;;;;;;;;5062221;28;20096;-52
2021/06/19 05:09:55;;;;;;;13.38;6.25;;;;;;;;;;5041092;28;20118;-51
2021/06/19 05:12:22;;;;;;;13.23;6.43;;;;;;;;;;5052976;28;20033;-55
2021/06/19 05:14:49;;;;;;;10.85;6.28;;;;;;;;;;5041531;28;20040;-53
2021/06/19 05:17:16;;;;;;;13.35;7.07;;;;;;;;;;5044453;28;20048;-56
2021/06/19 05:19:42;;;;;;;18.13;8.50;;;;;;;;;;5041136;28;20040;-51
2021/06/19 05:22:09;;;;;;;17.40;8.00;;;;;;;;;;5045447;28;20032;-50
2021/06/19 05:24:36;;;;;;;14.02;7.05;;;;;;;;;;5040915;28;20032;-50
2021/06/19 05:27:04;;;;;;;14.10;6.68;;;;;;;;;;5044353;28;20049;-52
2021/06/19 05:29:31;;;;;;;16.25;7.13;;;;;;;;;;5044470;28;20049;-56
2021/06/19 05:31:57;;;;;;;15.75;7.22;;;;;;;;;;5030636;28;20069;-56
2021/06/19 05:34:24;;;;;;;18.25;6.75;;;;;;;;;;5031985;28;20045;-56
2021/06/19 05:36:51;;;;;;;17.02;7.13;;;;;;;;;;5029826;28;20060;-56
2021/06/19 05:39:17;;;;;;;21.20;7.10;;;;;;;;;;5027559;28;20121;-57
2021/06/19 05:41:43;;;;;;;14.13;7.45;;;;;;;;;;5049858;28;20033;-56
2021/06/19 05:44:14;;;;;;;14.90;7.78;;;;;;;;;;5029498;28;20131;-51
2021/06/19 05:46:40;;;;;;;14.32;8.40;;;;;;;;;;5026943;28;20095;-52
2021/06/19 05:49:07;;;;;;;14.70;6.70;;;;;;;;;;5037205;28;20044;-52
2021/06/19 05:51:33;;;;;;;16.00;8.63;;;;;;;;;;5031549;28;20049;-48
2021/06/19 05:54:00;;;;;;;15.50;8.55;;;;;;;;;;5030633;28;20037;-52
2021/06/19 05:56:26;;;;;;;13.60;7.03;;;;;;;;;;5030924;28;20045;-51
2021/06/19 05:58:53;;;;;;;15.85;7.72;;;;;;;;;;5032082;28;20122;-49
2021/06/19 06:01:21;;;;;;;16.95;7.60;;;;;;;;;;5037357;28;20041;-52
2021/06/19 06:03:49;;;;;;;20.30;9.80;;;;;;;;;;5028096;28;20040;-51
2021/06/19 06:06:16;;;;;;;19.90;9.88;;;;;;;;;;5025236;28;20065;-50
2021/06/19 06:08:42;;;;;;;18.42;8.77;;;;;;;;;;5029710;28;20073;-52
2021/06/19 06:11:09;;;;;;;19.45;7.57;;;;;;;;;;5030095;28;20172;-55
2021/06/19 06:13:35;;;;;;;18.83;8.55;;;;;;;;;;5035615;28;20052;-55
2021/06/19 06:16:02;;;;;;;21.67;8.77;;;;;;;;;;5029132;28;20037;-55
2021/06/19 06:18:30;;;;;;;21.65;9.68;;;;;;;;;;5045875;28;20052;-54
2021/06/19 06:20:56;;;;;;;15.77;8.38;;;;;;;;;;5025881;28;20041;-54
2021/06/19 06:23:24;;;;;;;19.98;8.60;;;;;;;;;;5049928;28;20123;-52
2021/06/19 06:25:51;;;;;;;20.13;9.20;;;;;;;;;;5037478;28;20071;-51
2021/06/19 06:28:21;;;;;;;18.90;9.70;;;;;;;;;;5017457;28;20049;-50
2021/06/19 06:30:48;;;;;;;14.55;7.18;;;;;;;;;;5028494;28;20060;-56
2021/06/19 06:33:14;;;;;;;16.38;6.80;;;;;;;;;;5025976;28;20049;-57
2021/06/19 06:35:42;;;;;;;12.88;5.78;;;;;;;;;;5048525;28;20037;-52
2021/06/19 06:38:09;;;;;;;12.82;5.10;;;;;;;;;;5026349;28;20127;-53
2021/06/19 06:40:35;;;;;;;14.98;5.72;;;;;;;;;;5031807;28;20048;-55
2021/06/19 06:43:02;;;;;;;14.65;5.95;;;;;;;;;;5025338;28;20047;-55
2021/06/19 06:45:29;;;;;;;11.52;5.95;;;;;;;;;;5025203;28;20045;-56
2021/06/19 06:47:57;;;;;;;15.27;6.15;;;;;;;;;;5029329;28;20028;-55
2021/06/19 06:50:25;;;;;;;13.53;5.77;;;;;;;;;;5059890;28;20056;-57
2021/06/19 06:52:53;;;;;;;16.23;6.43;;;;;;;;;;5039928;28;20072;-57
2021/06/19 06:55:20;;;;;;;15.13;6.80;;;;;;;;;;5043676;28;20125;-54
2021/06/19 06:57:49;;;;;;;15.32;5.93;;;;;;;;;;5039758;28;20182;-55
2021/06/19 07:00:16;;;;;;;13.73;5.28;;;;;;;;;;5042996;28;20033;-54
2021/06/19 07:02:43;;;;;;;12.20;5.50;;;;;;;;;;5038818;28;20033;-52
2021/06/19 07:05:11;;;;;;;9.77;4.50;;;;;;;;;;5040541;28;20124;-58
2021/06/19 07:07:37;;;;;;;11.50;4.97;;;;;;;;;;5041062;28;20052;-58
2021/06/19 07:10:06;;;;;;;16.92;6.85;;;;;;;;;;5023859;28;20043;-58
2021/06/19 07:12:33;;;;;;;12.95;6.30;;;;;;;;;;5043726;28;20041;-57
2021/06/19 07:15:00;;;;;;;18.55;8.57;;;;;;;;;;5038838;28;20032;-55
2021/06/19 07:17:27;;;;;;;16.98;8.23;;;;;;;;;;5043806;28;20033;-56
2021/06/19 07:19:54;;;;;;;19.15;8.48;;;;;;;;;;5056981;28;20084;-58
2021/06/19 07:22:20;;;;;;;17.13;7.97;;;;;;;;;;5042731;28;20056;-57
2021/06/19 07:24:48;;;;;;;23.58;8.77;;;;;;;;;;5040090;28;20029;-54
2021/06/19 07:27:16;;;;;;;19.65;9.05;;;;;;;;;;5041862;28;20130;-55
2021/06/19 07:29:42;;;;;;;21.02;8.45;;;;;;;;;;5038045;28;20091;-56
2021/06/19 07:32:09;;;;;;;19.63;9.30;;;;;;;;;;5042387;28;20085;-58
2021/06/19 07:34:35;;;;;;;19.45;9.05;;;;;;;;;;5038289;28;20048;-56
2021/06/19 07:37:02;;;;;;;20.13;9.30;;;;;;;;;;5043718;28;20036;-57
2021/06/19 07:39:29;;;;;;;17.73;9.00;;;;;;;;;;5041191;28;20048;-52
2021/06/19 07:41:55;;;;;;;17.65;8.73;;;;;;;;;;5045188;28;20049;-56
2021/06/19 07:44:23;;;;;;;24.02;9.80;;;;;;;;;;5041901;28;20049;-58
2021/06/19 07:46:50;;;;;;;26.17;11.05;;;;;;;;;;5046527;28;20056;-57
2021/06/19 07:49:17;;;;;;;23.25;10.43;;;;;;;;;;5042180;28;20112;-57
2021/06/19 07:51:44;;;;;;;22.95;10.13;;;;;;;;;;5060961;28;20060;-54
2021/06/19 07:54:10;;;;;;;22.45;10.85;;;;;;;;;;5083543;28;20170;-51
2021/06/19 07:56:37;;;;;;;20.35;8.50;;;;;;;;;;5044713;28;20049;-56
2021/06/19 07:59:03;;;;;;;20.92;9.30;;;;;;;;;;5045678;28;20041;-59
2021/06/19 08:01:31;;;;;;;18.20;8.57;;;;;;;;;;5061403;28;20113;-54
2021/06/19 08:03:58;;;;;;;18.58;8.52;;;;;;;;;;5063061;28;20083;-56
2021/06/19 08:06:24;;;;;;;16.10;7.72;;;;;;;;;;5042565;28;20126;-55
2021/06/19 08:08:54;;;;;;;16.60;7.90;;;;;;;;;;5045999;28;20056;-57
2021/06/19 08:11:20;;;;;;;15.60;6.90;;;;;;;;;;5029408;28;20053;-59
2021/06/19 08:13:47;;;;;;;15.15;6.97;;;;;;;;;;5032681;28;20040;-56
2021/06/19 08:16:16;;;;;;;12.68;6.47;;;;;;;;;;5040964;28;20073;-57
2021/06/19 08:18:44;;;;;;;13.63;6.28;;;;;;;;;;5045935;28;20036;-57
2021/06/19 08:21:11;;;;;;;15.93;6.50;;;;;;;;;;5059992;28;20048;-57
2021/06/19 08:23:37;;;;;;;14.30;6.68;;;;;;;;;;5063739;28;20098;-57
2021/06/19 08:26:04;;;;;;;13.93;6.53;;;;;;;;;;5042058;28;20155;-53
2021/06/19 08:28:33;;;;;;;15.23;7.85;;;;;;;;;;5062241;28;20068;-55
2021/06/19 08:30:59;;;;;;;16.35;7.43;;;;;;;;;;5040595;28;20053;-58
2021/06/19 08:33:26;;;;;;;14.65;7.80;;;;;;;;;;5063023;28;20108;-57
2021/06/19 08:35:53;;;;;;;15.57;7.13;;;;;;;;;;5045862;28;20040;-56
2021/06/19 08:38:20;;;;;;;15.77;7.95;;;;;;;;;;5042506;28;20044;-57
2021/06/19 08:40:46;;;;;;;13.90;7.65;;;;;;;;;;5044178;28;20033;-55
2021/06/19 08:43:13;;;;;;;14.77;7.45;;;;;;;;;;5059735;28;20084;-56
2021/06/19 08:45:41;;;;;;;16.17;7.60;;;;;;;;;;5045199;28;20037;-57
2021/06/19 08:48:07;;;;;;;17.13;7.10;;;;;;;;;;5041313;28;20093;-54
2021/06/19 08:50:37;;;;;;;20.70;7.93;;;;;;;;;;5045274;28;20041;-56
2021/06/19 08:53:04;;;;;;;14.85;6.72;;;;;;;;;;5040620;28;20047;-56
2021/06/19 08:55:31;;;;;;;16.70;7.20;;;;;;;;;;5045272;28;20126;-56
2021/06/19 08:57:57;;;;;;;14.50;6.80;;;;;;;;;;5040790;28;20033;-55
2021/06/19 09:00:24;;;;;;;15.57;6.78;;;;;;;;;;5044488;28;20028;-58
2021/06/19 09:02:52;;;;;;;10.95;6.03;;;;;;;;;;5042170;28;20052;-53
2021/06/19 09:05:24;;;;;;;13.18;5.60;;;;;;;;;;5061390;28;20032;-55
2021/06/19 09:07:52;;;;;;;21.35;8.88;;;;;;;;;;5041578;28;20049;-54
2021/06/19 09:10:21;;;;;;;15.20;8.05;;;;;;;;;;5043541;28;20114;-54
2021/06/19 09:12:54;;;;;;;16.45;8.27;;;;;;;;;;5040361;28;20048;-53
2021/06/19 09:15:23;;;;;;;15.90;6.72;;;;;;;;;;5044004;28;20051;-55
2021/06/19 09:18:00;;;;;;;13.43;6.85;;;;;;;;;;5041971;28;20122;-56
2021/06/19 09:20:34;;;;;;;18.70;8.10;;;;;;;;;;5043725;28;20051;-56
2021/06/19 09:23:04;;;;;;;20.67;8.40;;;;;;;;;;5041939;28;20080;-56
2021/06/19 09:25:32;;;;;;;18.45;8.27;;;;;;;;;;5045493;28;20125;-58
2021/06/19 09:27:59;;;;;;;17.02;7.20;;;;;;;;;;5046177;28;20052;-56
2021/06/19 09:30:25;;;;;;;11.43;6.25;;;;;;;;;;5041174;28;20098;-54
2021/06/19 09:32:53;;;;;;;13.57;6.07;;;;;;;;;;5042706;28;20064;-56
2021/06/19 09:35:24;;;;;;;13.13;6.20;;;;;;;;;;5040683;28;20178;-55
2021/06/19 09:37:51;;;;;;;10.80;5.38;;;;;;;;;;5059459;28;20081;-55
2021/06/19 09:40:21;;;;;;;9.20;5.40;;;;;;;;;;5039656;28;20102;-55
2021/06/19 09:42:49;;;;;;;9.98;5.35;;;;;;;;;;5043406;28;20040;-56
2021/06/19 09:45:20;;;;;;;12.23;5.82;;;;;;;;;;5041470;28;20036;-57
2021/06/19 09:47:47;;;;;;;11.10;5.82;;;;;;;;;;5052481;28;20171;-56
2021/06/19 09:50:13;;;;;;;11.15;5.82;;;;;;;;;;5058903;28;20432;-56
2021/06/19 09:52:40;;;;;;;11.85;5.80;;;;;;;;;;5045492;28;20122;-56
2021/06/19 09:55:11;;;;;;;10.27;4.95;;;;;;;;;;5040442;28;20029;-53
2021/06/19 09:57:38;;;;;;;10.05;5.55;;;;;;;;;;5062751;28;20080;-54
2021/06/19 10:00:06;;;;;;;13.18;5.43;;;;;;;;;;5058097;28;20060;-56
2021/06/19 10:02:33;;;;;;;9.73;5.38;;;;;;;;;;5044670;28;20051;-50
2021/06/19 10:05:00;;;;;;;10.57;5.20;;;;;;;;;;5037602;28;20118;-53
2021/06/19 10:07:27;;;;;;;11.05;5.30;;;;;;;;;;5041358;28;20110;-54
2021/06/19 10:09:54;;;;;;;9.48;5.30;;;;;;;;;;5041121;28;20138;-52
2021/06/19 10:12:21;;;;;;;12.75;6.82;;;;;;;;;;5044588;28;20040;-56
2021/06/19 10:14:49;;;;;;;13.18;6.35;;;;;;;;;;5044615;28;20033;-51
2021/06/19 10:17:17;;;;;;;13.27;6.88;;;;;;;;;;5040185;28;20078;-54
2021/06/19 10:19:44;;;;;;;12.32;7.07;;;;;;;;;;5060993;28;20048;-54
2021/06/19 10:22:11;;;;;;;12.02;6.78;;;;;;;;;;5040390;28;20045;-55
2021/06/19 10:24:38;;;;;;;13.00;6.18;;;;;;;;;;5044129;28;20056;-52
2021/06/19 10:27:07;;;;;;;13.80;7.35;;;;;;;;;;5040551;28;20037;-53
2021/06/19 10:29:34;;;;;;;15.30;7.82;;;;;;;;;;5043619;28;20055;-52
2021/06/19 10:32:01;;;;;;;14.93;7.75;;;;;;;;;;5039028;28;20032;-53
2021/06/19 10:34:32;;;;;;;16.92;8.73;;;;;;;;;;5044493;28;20033;-55
2021/06/19 10:36:59;;;;;;;13.77;7.63;;;;;;;;;;5040032;28;20098;-52
2021/06/19 10:39:33;;;;;;;17.67;7.55;;;;;;;;;;5043495;28;20138;-55
2021/06/19 10:42:00;;;;;;;13.93;7.82;;;;;;;;;;5040336;28;20029;-56
2021/06/19 10:44:45;;;;;;;14.20;7.40;;;;;;;;;;5043458;28;20122;-54
2021/06/19 10:47:11;;;;;;;14.13;7.78;;;;;;;;;;5040288;28;20037;-54
2021/06/19 10:49:42;;;;;;;14.45;7.57;;;;;;;;;;5062118;28;20037;-55
2021/06/19 10:52:23;;;;;;;16.40;8.63;;;;;;;;;;5039703;28;20043;-56
2021/06/19 10:55:04;;;;;;;17.02;8.98;;;;;;;;;;5045250;28;20040;-54
2021/06/19 10:57:44;;;;;;;16.45;8.52;;;;;;;;;;5038366;28;20151;-55
2021/06/19 11:00:31;;;;;;;17.92;9.85;;;;;;;;;;5059976;28;20036;-56
2021/06/19 11:02:59;;;;;;;16.13;9.38;;;;;;;;;;5038872;28;20056;-54
2021/06/19 11:05:45;;;;;;;16.48;9.43;;;;;;;;;;5040807;28;20119;-49
2021/06/19 11:08:13;;;;;;;18.73;9.48;;;;;;;;;;5040388;28;20052;-53
2021/06/19 11:10:59;;;;;;;19.90;11.07;;;;;;;;;;5026585;28;20042;-55
2021/06/19 11:13:44;;;;;;;17.40;10.50;;;;;;;;;;5033448;28;20037;-55
2021/06/19 11:16:30;;;;;;;19.60;10.25;;;;;;;;;;5064165;28;20041;-56
2021/06/19 11:18:56;;;;;;;23.23;13.00;;;;;;;;;;5042396;28;20110;-55
2021/06/19 11:21:27;;;;;;;18.48;10.30;;;;;;;;;;5046371;28;20051;-54
2021/06/19 11:24:13;;;;;;;20.40;10.95;;;;;;;;;;5043099;28;20060;-57
2021/06/19 11:26:47;;;;;;;19.20;10.88;;;;;;;;;;5040823;28;20048;-54
2021/06/19 11:29:31;;;;;;;22.13;10.73;;;;;;;;;;5032519;28;20024;-54
2021/06/19 11:31:58;;;;;;;22.15;13.30;;;;;;;;;;5024358;28;20140;-54
2021/06/19 11:34:40;;;;;;;23.13;11.85;;;;;;;;;;5033707;28;20060;-56
2021/06/19 11:37:07;;;;;;;19.27;10.98;;;;;;;;;;5063860;28;20138;-51
2021/06/19 11:39:35;;;;;;;22.35;12.00;;;;;;;;;;5041401;28;20059;-56
2021/06/19 11:42:02;;;;;;;20.67;11.00;;;;;;;;;;5046634;28;20049;-57
2021/06/19 11:44:33;;;;;;;19.17;11.10;;;;;;;;;;5042719;28;20088;-55
2021/06/19 11:47:00;;;;;;;15.95;9.85;;;;;;;;;;5045791;28;20049;-57
2021/06/19 11:49:31;;;;;;;18.70;9.77;;;;;;;;;;5042456;28;20049;-56
2021/06/19 11:51:58;;;;;;;15.38;9.00;;;;;;;;;;5045420;28;20037;-56
2021/06/19 11:54:25;;;;;;;15.05;8.20;;;;;;;;;;5042793;28;20040;-52
2021/06/19 11:56:55;;;;;;;16.67;9.68;;;;;;;;;;5045122;28;20147;-56
2021/06/19 11:59:21;;;;;;;17.65;8.13;;;;;;;;;;5042923;28;20029;-53
2021/06/19 12:01:49;;;;;;;19.50;9.40;;;;;;;;;;5061743;28;20052;-56
2021/06/19 12:04:16;;;;;;;21.35;9.70;;;;;;;;;;5061442;28;20044;-56
2021/06/19 12:06:44;;;;;;;17.63;9.15;;;;;;;;;;5026991;28;20175;-56
2021/06/19 12:09:12;;;;;;;17.98;9.70;;;;;;;;;;5030798;28;20037;-54
2021/06/19 12:11:39;;;;;;;19.25;9.55;;;;;;;;;;5039852;28;20041;-54
2021/06/19 12:14:20;;;;;;;17.85;10.18;;;;;;;;;;5042396;28;20073;-56
2021/06/19 12:16:49;;;;;;;20.90;11.40;;;;;;;;;;5057231;28;20041;-54
2021/06/19 12:19:16;;;;;;;24.05;10.43;;;;;;;;;;5045413;28;20102;-57
2021/06/19 12:21:43;;;;;;;20.75;10.88;;;;;;;;;;5041756;28;20029;-54
2021/06/19 12:24:23;;;;;;;20.23;11.27;;;;;;;;;;5046292;28;20044;-53
2021/06/19 12:27:00;;;;;;;20.60;11.38;;;;;;;;;;5042117;28;20076;-57
2021/06/19 12:29:32;;;;;;;18.98;10.07;;;;;;;;;;5028435;28;20081;-56
2021/06/19 12:31:58;;;;;;;19.90;11.50;;;;;;;;;;5052278;28;20070;-52
2021/06/19 12:34:26;;;;;;;27.35;13.63;;;;;;;;;;5044356;28;20045;-57
2021/06/19 12:36:53;;;;;;;19.17;11.02;;;;;;;;;;5040425;28;20037;-56
2021/06/19 12:39:20;;;;;;;23.40;11.75;;;;;;;;;;5044113;28;20029;-55
2021/06/19 12:41:47;;;;;;;22.30;11.90;;;;;;;;;;5040770;28;20040;-58
2021/06/19 12:44:13;;;;;;;24.38;12.52;;;;;;;;;;5045394;28;21318;-57
2021/06/19 12:46:41;;;;;;;23.05;12.27;;;;;;;;;;5060470;28;20037;-58
2021/06/19 12:49:08;;;;;;;21.48;10.25;;;;;;;;;;5043388;28;20041;-56
2021/06/19 12:51:36;;;;;;;14.57;8.25;;;;;;;;;;5041787;28;20045;-52
2021/06/19 12:54:16;;;;;;;23.60;11.18;;;;;;;;;;5044716;28;20048;-56
2021/06/19 12:56:52;;;;;;;20.25;11.32;;;;;;;;;;5041839;28;20110;-56
2021/06/19 12:59:18;;;;;;;20.55;10.68;;;;;;;;;;5043442;28;20033;-55
2021/06/19 13:01:59;;;;;;;19.52;11.18;;;;;;;;;;5041306;28;20041;-57
2021/06/19 13:04:27;;;;;;;16.92;9.50;;;;;;;;;;5041073;28;20037;-55
2021/06/19 13:07:04;;;;;;;18.23;10.85;;;;;;;;;;5042270;28;20113;-56
2021/06/19 13:09:45;;;;;;;23.25;11.57;;;;;;;;;;5061684;28;20044;-56
2021/06/19 13:12:12;;;;;;;23.83;10.32;;;;;;;;;;5036408;28;20036;-58
2021/06/19 13:14:38;;;;;;;19.95;11.10;;;;;;;;;;5030248;28;20040;-53
2021/06/19 13:17:15;;;;;;;17.52;9.35;;;;;;;;;;5032212;28;20045;-56
2021/06/19 13:19:42;;;;;;;24.33;12.07;;;;;;;;;;5030749;28;20041;-56
2021/06/19 13:22:08;;;;;;;19.95;11.00;;;;;;;;;;5048237;28;20041;-56
2021/06/19 13:24:36;;;;;;;22.77;13.07;;;;;;;;;;5035833;28;20063;-57
2021/06/19 13:27:09;;;;;;;22.63;12.23;;;;;;;;;;5050860;28;20057;-55
2021/06/19 13:29:36;;;;;;;20.45;10.68;;;;;;;;;;5042942;28;20045;-57
2021/06/19 13:32:03;;;;;;;19.67;11.65;;;;;;;;;;5044118;28;20052;-56
2021/06/19 13:34:31;;;;;;;18.85;11.07;;;;;;;;;;5027178;28;20091;-56
2021/06/19 13:36:59;;;;;;;;;;;;;;;;;;5031919;28;20045;-57
2021/06/19 13:39:26;;;;;;;20.70;11.77;;;;;;;;;;5009376;28;19935;-54
2021/06/19 13:41:53;;;;;;;17.38;10.10;;;;;;;;;;5037153;28;20062;-58
2021/06/19 13:44:20;;;;;;;20.63;12.00;;;;;;;;;;5043332;28;20041;-52
2021/06/19 13:46:48;;;;;;;23.27;11.95;;;;;;;;;;5051001;28;20282;-57
2021/06/19 13:49:15;;;;;;;24.50;13.50;;;;;;;;;;5026939;28;20118;-56
2021/06/19 13:51:46;;;;;;;15.90;10.43;;;;;;;;;;5049501;28;20077;-57
2021/06/19 13:54:13;;;;;;;21.13;11.55;;;;;;;;;;5044734;28;20037;-57
2021/06/19 13:56:40;;;;;;;22.40;12.77;;;;;;;;;;5033511;28;20062;-51
2021/06/19 13:59:06;;;;;;;22.85;11.95;;;;;;;;;;5023156;28;20078;-58
2021/06/19 14:01:32;;;;;;;23.52;12.80;;;;;;;;;;5026903;28;20123;-58
2021/06/19 14:03:59;;;;;;;21.15;13.18;;;;;;;;;;5010630;28;20072;-55
2021/06/19 14:06:25;;;;;;;23.77;11.65;;;;;;;;;;5029819;28;20082;-56
2021/06/19 14:08:54;;;;;;;21.55;12.23;;;;;;;;;;5046186;28;20045;-59
2021/06/19 14:11:21;;;;;;;21.42;11.57;;;;;;;;;;5044929;28;20049;-58
2021/06/19 14:13:48;;;;;;;22.17;12.57;;;;;;;;;;5031960;28;20056;-59
2021/06/19 14:16:17;;;;;;;22.60;12.90;;;;;;;;;;5028801;28;20053;-57
2021/06/19 14:18:44;;;;;;;20.92;12.05;;;;;;;;;;5029712;28;20059;-58
2021/06/19 14:21:11;;;;;;;20.83;11.30;;;;;;;;;;5027164;28;20045;-54
2021/06/19 14:23:39;;;;;;;18.77;11.30;;;;;;;;;;5032915;28;20036;-58
2021/06/19 14:26:10;;;;;;;20.73;12.18;;;;;;;;;;5030786;28;20041;-59
2021/06/19 14:28:36;;;;;;;18.83;11.10;;;;;;;;;;5051730;28;20147;-58
2021/06/19 14:31:03;;;;;;;19.75;10.75;;;;;;;;;;5026858;28;20065;-58
2021/06/19 14:33:29;;;;;;;22.35;11.85;;;;;;;;;;5046948;28;20060;-58
2021/06/19 14:35:56;;;;;;;21.80;11.88;;;;;;;;;;5027140;28;20045;-57